createdAt,value
2018-11-25T00:00:31.380Z,102.93
2018-11-25T00:02:35.706Z,142.53
2018-11-25T00:04:40.041Z,155.37
2018-11-25T00:06:44.415Z,117.47
2018-11-25T00:08:48.839Z,152.97
2018-11-25T00:10:53.132Z,138.53
2018-11-25T00:12:57.744Z,109.57
2018-11-25T00:15:02.089Z,123.57
2018-11-25T00:17:06.804Z,118.20
2018-11-25T00:19:11.253Z,111.20
2018-11-25T00:21:15.656Z,107.13
2018-11-25T00:23:19.871Z,92.77
2018-11-25T00:25:24.182Z,90.10
2018-11-25T00:27:28.583Z,94.90
2018-11-25T00:29:32.828Z,91.13
2018-11-25T00:31:37.027Z,97.93
2018-11-25T00:33:41.487Z,81.93
2018-11-25T00:35:45.986Z,92.07
2018-11-25T00:37:50.260Z,124.00
2018-11-25T00:39:54.726Z,117.53
2018-11-25T00:41:59.133Z,108.63
2018-11-25T00:44:03.643Z,92.87
2018-11-25T00:46:07.903Z,248.57
2018-11-25T00:48:12.199Z,145.03
2018-11-25T00:50:16.733Z,116.47
2018-11-25T00:52:21.138Z,161.13
2018-11-25T00:54:25.641Z,115.37
2018-11-25T00:56:30.026Z,189.23
2018-11-25T00:58:34.239Z,124.67
2018-11-25T01:00:38.553Z,118.30
2018-11-25T01:02:42.963Z,103.67
2018-11-25T01:04:47.068Z,173.07
2018-11-25T01:06:51.290Z,172.87
2018-11-25T01:08:55.798Z,145.20
2018-11-25T01:11:00.031Z,96.43
2018-11-25T01:13:04.472Z,122.80
2018-11-25T01:15:10.842Z,132.23
2018-11-25T01:17:15.323Z,111.40
2018-11-25T01:19:19.546Z,104.47
2018-11-25T01:21:24.075Z,117.03
2018-11-25T01:23:28.661Z,156.63
2018-11-25T01:25:33.072Z,93.50
2018-11-25T01:27:37.613Z,133.40
2018-11-25T01:29:41.841Z,157.07
2018-11-25T01:31:46.045Z,160.70
2018-11-25T01:33:50.350Z,98.40
2018-11-25T01:35:54.791Z,107.90
2018-11-25T01:37:59.485Z,160.63
2018-11-25T01:40:04.022Z,129.17
2018-11-25T01:42:08.430Z,205.23
2018-11-25T01:44:12.751Z,91.37
2018-11-25T01:46:16.898Z,126.23
2018-11-25T01:48:21.285Z,97.90
2018-11-25T01:50:25.600Z,93.40
2018-11-25T01:52:30.107Z,94.97
2018-11-25T01:54:34.500Z,106.23
2018-11-25T01:56:38.801Z,155.30
2018-11-25T01:58:43.053Z,112.47
2018-11-25T02:00:47.693Z,93.33
2018-11-25T02:02:51.892Z,173.03
2018-11-25T02:04:56.081Z,102.33
2018-11-25T02:07:00.550Z,103.77
2018-11-25T02:09:06.275Z,134.73
2018-11-25T02:11:10.697Z,133.73
2018-11-25T02:13:15.006Z,93.27
2018-11-25T02:15:19.516Z,84.50
2018-11-25T02:17:23.928Z,105.17
2018-11-25T02:19:28.241Z,80.70
2018-11-25T02:21:32.597Z,86.47
2018-11-25T02:23:36.988Z,129.87
2018-11-25T02:25:41.345Z,87.17
2018-11-25T02:27:45.879Z,88.63
2018-11-25T02:29:50.236Z,116.90
2018-11-25T02:31:54.575Z,96.93
2018-11-25T02:33:58.959Z,108.20
2018-11-25T02:36:03.403Z,114.07
2018-11-25T02:38:07.887Z,88.77
2018-11-25T02:40:14.128Z,126.20
2018-11-25T02:42:18.596Z,135.67
2018-11-25T02:44:22.875Z,101.73
2018-11-25T02:46:27.079Z,149.80
2018-11-25T02:48:31.338Z,110.57
2018-11-25T02:50:35.727Z,141.17
2018-11-25T02:52:40.146Z,105.23
2018-11-25T02:54:44.464Z,86.27
2018-11-25T02:56:48.771Z,139.33
2018-11-25T02:58:53.052Z,131.00
2018-11-25T03:00:57.521Z,97.37
2018-11-25T03:03:01.848Z,107.37
2018-11-25T03:05:07.028Z,116.13
2018-11-25T03:07:11.285Z,103.57
2018-11-25T03:09:15.839Z,149.73
2018-11-25T03:11:20.219Z,95.83
2018-11-25T03:13:24.665Z,99.77
2018-11-25T03:15:29.349Z,103.90
2018-11-25T03:17:33.763Z,94.30
2018-11-25T03:19:38.283Z,78.60
2018-11-25T03:21:42.527Z,92.83
2018-11-25T03:23:47.830Z,95.27
2018-11-25T03:25:52.358Z,75.80
2018-11-25T03:27:56.988Z,119.77
2018-11-25T03:30:01.421Z,99.30
2018-11-25T03:32:06.338Z,87.47
2018-11-25T03:34:10.686Z,68.10
2018-11-25T03:36:15.059Z,77.03
2018-11-25T03:38:19.357Z,69.17
2018-11-25T03:40:23.557Z,64.73
2018-11-25T03:42:27.796Z,63.43
2018-11-25T03:44:32.078Z,64.57
2018-11-25T03:46:36.510Z,69.17
2018-11-25T03:48:40.926Z,61.37
2018-11-25T03:50:45.246Z,53.10
2018-11-25T03:52:49.655Z,62.10
2018-11-25T03:54:53.858Z,50.03
2018-11-25T03:56:58.051Z,61.60
2018-11-25T03:59:02.304Z,55.70
2018-11-25T04:01:07.252Z,53.90
2018-11-25T04:03:11.670Z,49.50
2018-11-25T04:05:17.113Z,60.87
2018-11-25T04:07:21.434Z,51.17
2018-11-25T04:09:25.824Z,57.57
2018-11-25T04:11:30.243Z,57.00
2018-11-25T04:13:34.557Z,47.67
2018-11-25T04:15:38.839Z,58.57
2018-11-25T04:17:43.217Z,51.73
2018-11-25T04:19:47.633Z,53.50
2018-11-25T04:21:51.912Z,46.30
2018-11-25T04:23:56.452Z,56.90
2018-11-25T04:26:00.722Z,62.13
2018-11-25T04:28:05.263Z,70.60
2018-11-25T04:30:14.923Z,52.13
2018-11-25T04:32:19.384Z,58.53
2018-11-25T04:34:23.618Z,58.80
2018-11-25T04:36:27.994Z,59.57
2018-11-25T04:38:32.515Z,53.43
2018-11-25T04:40:36.981Z,49.33
2018-11-25T04:42:41.416Z,57.70
2018-11-25T04:44:45.835Z,82.87
2018-11-25T04:46:50.274Z,59.53
2018-11-25T04:48:54.405Z,62.73
2018-11-25T04:50:58.875Z,45.63
2018-11-25T04:53:03.208Z,77.73
2018-11-25T04:55:07.869Z,59.83
2018-11-25T04:57:12.427Z,70.37
2018-11-25T04:59:16.648Z,65.03
2018-11-25T05:01:21.056Z,59.13
2018-11-25T05:03:25.411Z,63.53
2018-11-25T05:05:29.797Z,66.27
2018-11-25T05:07:34.195Z,56.90
2018-11-25T05:09:38.507Z,59.87
2018-11-25T05:11:42.855Z,51.63
2018-11-25T05:13:47.037Z,58.60
2018-11-25T05:15:51.392Z,66.40
2018-11-25T05:17:55.665Z,80.83
2018-11-25T05:19:59.964Z,69.70
2018-11-25T05:22:04.400Z,55.20
2018-11-25T05:24:08.833Z,69.10
2018-11-25T05:26:13.060Z,60.23
2018-11-25T05:28:17.319Z,106.93
2018-11-25T05:30:21.984Z,96.43
2018-11-25T05:32:26.200Z,114.70
2018-11-25T05:34:30.614Z,79.83
2018-11-25T05:36:35.046Z,78.47
2018-11-25T05:38:39.501Z,102.90
2018-11-25T05:40:43.844Z,149.90
2018-11-25T05:42:48.498Z,109.27
2018-11-25T05:44:53.011Z,79.67
2018-11-25T05:46:57.424Z,92.50
2018-11-25T05:49:01.636Z,61.70
2018-11-25T05:51:06.442Z,62.43
2018-11-25T05:53:10.766Z,67.90
2018-11-25T05:55:15.337Z,57.17
2018-11-25T05:57:19.834Z,60.77
2018-11-25T05:59:24.168Z,64.50
2018-11-25T06:01:28.688Z,52.13
2018-11-25T06:03:33.271Z,67.83
2018-11-25T06:05:37.806Z,50.60
2018-11-25T06:07:42.122Z,62.07
2018-11-25T06:09:46.615Z,62.57
2018-11-25T06:11:51.058Z,65.17
2018-11-25T06:13:55.359Z,65.27
2018-11-25T06:16:00.977Z,59.00
2018-11-25T06:18:05.406Z,59.63
2018-11-25T06:20:12.817Z,73.40
2018-11-25T06:22:18.341Z,72.23
2018-11-25T06:24:22.637Z,69.40
2018-11-25T06:26:26.844Z,95.03
2018-11-25T06:28:31.185Z,93.53
2018-11-25T06:30:35.707Z,89.57
2018-11-25T06:32:41.416Z,96.10
2018-11-25T06:34:45.743Z,101.17
2018-11-25T06:36:50.226Z,81.07
2018-11-25T06:38:54.984Z,87.10
2018-11-25T06:40:59.803Z,101.20
2018-11-25T06:43:04.098Z,96.50
2018-11-25T06:45:18.798Z,98.63
2018-11-25T06:47:23.090Z,96.87
2018-11-25T06:49:27.611Z,112.67
2018-11-25T06:51:32.165Z,92.23
2018-11-25T06:53:36.584Z,99.77
2018-11-25T06:55:40.973Z,96.27
2018-11-25T06:57:45.421Z,93.30
2018-11-25T06:59:50.589Z,82.10
2018-11-25T07:01:55.437Z,82.03
2018-11-25T07:04:00.043Z,86.73
2018-11-25T07:06:04.649Z,89.27
2018-11-25T07:08:08.938Z,91.70
2018-11-25T07:10:16.195Z,87.90
2018-11-25T07:12:20.630Z,92.53
2018-11-25T07:14:25.072Z,84.43
2018-11-25T07:16:29.661Z,81.47
2018-11-25T07:18:33.951Z,72.30
2018-11-25T07:20:38.332Z,74.97
2018-11-25T07:22:42.958Z,86.13
2018-11-25T07:24:47.037Z,79.07
2018-11-25T07:26:51.455Z,104.93
2018-11-25T07:28:55.779Z,96.33
2018-11-25T07:31:00.088Z,97.03
2018-11-25T07:33:04.436Z,113.50
2018-11-25T07:35:08.898Z,107.93
2018-11-25T07:37:13.250Z,111.50
2018-11-25T07:39:17.747Z,120.47
2018-11-25T07:41:22.120Z,124.77
2018-11-25T07:43:26.467Z,119.97
2018-11-25T07:45:31.015Z,132.07
2018-11-25T07:47:35.421Z,138.50
2018-11-25T07:49:39.959Z,132.53
2018-11-25T07:51:48.119Z,143.40
2018-11-25T07:53:52.715Z,131.97
2018-11-25T07:55:57.192Z,120.20
2018-11-25T07:58:01.628Z,135.83
2018-11-25T08:00:08.326Z,150.53
2018-11-25T08:02:12.792Z,141.80
2018-11-25T08:04:17.231Z,137.33
2018-11-25T08:06:21.833Z,145.73
2018-11-25T08:08:26.261Z,143.80
2018-11-25T08:10:30.771Z,124.83
2018-11-25T08:12:35.221Z,138.47
2018-11-25T08:14:39.530Z,131.73
2018-11-25T08:16:43.997Z,118.20
2018-11-25T08:18:48.361Z,144.50
2018-11-25T08:20:52.699Z,137.50
2018-11-25T08:22:57.092Z,138.53
2018-11-25T08:25:01.439Z,161.03
2018-11-25T08:27:06.107Z,131.23
2018-11-25T08:29:10.523Z,147.30
2018-11-25T08:31:14.986Z,109.00
2018-11-25T08:33:19.260Z,134.90
2018-11-25T08:35:23.569Z,111.90
2018-11-25T08:37:27.886Z,124.50
2018-11-25T08:39:32.288Z,121.07
2018-11-25T08:41:37.144Z,114.43
2018-11-25T08:43:41.718Z,122.40
2018-11-25T08:45:46.061Z,117.10
2018-11-25T08:47:50.677Z,101.13
2018-11-25T08:49:55.037Z,86.20
2018-11-25T08:51:59.472Z,94.40
2018-11-25T08:54:03.843Z,91.17
2018-11-25T08:56:08.220Z,100.97
2018-11-25T08:58:16.657Z,97.47
2018-11-25T09:00:23.710Z,101.73
2018-11-25T09:02:28.061Z,106.53
2018-11-25T09:04:32.566Z,95.80
2018-11-25T09:06:36.875Z,89.73
2018-11-25T09:08:41.112Z,83.50
2018-11-25T09:10:45.636Z,92.13
2018-11-25T09:12:55.854Z,105.10
2018-11-25T09:14:56.504Z,96.03
2018-11-25T09:17:00.895Z,100.30
2018-11-25T09:19:05.415Z,105.23
2018-11-25T09:21:09.851Z,93.93
2018-11-25T09:23:14.271Z,101.63
2018-11-25T09:25:19.942Z,104.30
2018-11-25T09:27:24.209Z,105.27
2018-11-25T09:29:28.661Z,128.53
2018-11-25T09:31:32.949Z,106.93
2018-11-25T09:33:37.576Z,114.67
2018-11-25T09:35:44.250Z,116.20
2018-11-25T09:37:48.599Z,130.07
2018-11-25T09:39:52.973Z,121.20
2018-11-25T09:41:57.603Z,120.90
2018-11-25T09:44:02.027Z,122.87
2018-11-25T09:46:06.568Z,121.33
2018-11-25T09:48:11.527Z,137.90
2018-11-25T09:50:17.811Z,139.43
2018-11-25T09:52:22.076Z,128.27
2018-11-25T09:54:26.584Z,145.43
2018-11-25T09:56:30.950Z,139.93
2018-11-25T09:58:35.468Z,128.50
2018-11-25T10:00:40.263Z,154.07
2018-11-25T10:02:44.748Z,136.93
2018-11-25T10:04:49.305Z,126.07
2018-11-25T10:06:54.103Z,123.23
2018-11-25T10:08:58.577Z,129.00
2018-11-25T10:11:02.993Z,126.93
2018-11-25T10:13:07.753Z,99.23
2018-11-25T10:15:13.301Z,109.50
2018-11-25T10:17:18.087Z,116.67
2018-11-25T10:19:22.702Z,85.13
2018-11-25T10:21:27.089Z,95.17
2018-11-25T10:23:31.551Z,106.40
2018-11-25T10:25:35.984Z,108.57
2018-11-25T10:27:40.414Z,104.00
2018-11-25T10:29:44.741Z,104.40
2018-11-25T10:31:49.380Z,92.27
2018-11-25T10:33:53.870Z,108.60
2018-11-25T10:35:58.540Z,91.23
2018-11-25T10:38:02.935Z,89.80
2018-11-25T10:40:10.907Z,112.70
2018-11-25T10:42:15.149Z,121.03
2018-11-25T10:44:19.714Z,113.77
2018-11-25T10:46:23.979Z,130.60
2018-11-25T10:48:28.255Z,130.07
2018-11-25T10:50:32.648Z,127.37
2018-11-25T10:52:37.326Z,122.00
2018-11-25T10:54:42.149Z,131.20
2018-11-25T10:56:46.787Z,115.03
2018-11-25T10:58:51.418Z,133.20
2018-11-25T11:01:00.071Z,136.23
2018-11-25T11:03:09.886Z,114.97
2018-11-25T11:05:19.459Z,116.47
2018-11-25T11:07:28.154Z,119.23
2018-11-25T11:09:32.833Z,105.10
2018-11-25T11:11:37.253Z,123.43
2018-11-25T11:13:41.544Z,99.53
2018-11-25T11:15:45.944Z,102.67
2018-11-25T11:17:50.573Z,92.07
2018-11-25T11:19:55.042Z,94.20
2018-11-25T11:21:59.426Z,99.23
2018-11-25T11:24:04.009Z,98.03
2018-11-25T11:26:22.157Z,90.40
2018-11-25T11:28:26.553Z,84.90
2018-11-25T11:30:31.006Z,83.80
2018-11-25T11:32:35.351Z,72.30
2018-11-25T11:34:42.072Z,84.57
2018-11-25T11:36:46.621Z,92.00
2018-11-25T11:39:00.853Z,89.30
2018-11-25T11:41:05.394Z,83.10
2018-11-25T11:43:09.822Z,92.70
2018-11-25T11:45:15.268Z,82.20
2018-11-25T11:47:19.548Z,64.33
2018-11-25T11:49:24.130Z,86.57
2018-11-25T11:51:28.629Z,80.30
2018-11-25T11:53:33.034Z,74.83
2018-11-25T11:55:37.697Z,77.07
2018-11-25T11:57:42.809Z,79.83
2018-11-25T11:59:47.174Z,75.63
2018-11-25T12:01:51.589Z,67.73
2018-11-25T12:03:56.122Z,76.47
2018-11-25T12:06:00.772Z,91.83
2018-11-25T12:08:05.031Z,89.83
2018-11-25T12:10:13.287Z,79.50
2018-11-25T12:12:18.839Z,86.60
2018-11-25T12:14:23.322Z,78.67
2018-11-25T12:16:27.670Z,87.67
2018-11-25T12:18:32.175Z,88.60
2018-11-25T12:20:36.766Z,67.43
2018-11-25T12:22:41.510Z,63.43
2018-11-25T12:24:46.114Z,67.43
2018-11-25T12:26:51.584Z,64.20
2018-11-25T12:28:55.927Z,78.20
2018-11-25T12:31:00.514Z,60.27
2018-11-25T12:33:05.145Z,67.50
2018-11-25T12:35:11.637Z,70.27
2018-11-25T12:37:16.108Z,70.80
2018-11-25T12:39:20.473Z,66.50
2018-11-25T12:41:24.749Z,66.13
2018-11-25T12:43:29.209Z,77.13
2018-11-25T12:45:34.705Z,72.43
2018-11-25T12:47:39.460Z,83.60
2018-11-25T12:49:43.925Z,78.33
2018-11-25T12:51:48.352Z,69.03
2018-11-25T12:53:52.700Z,69.17
2018-11-25T12:55:56.891Z,68.00
2018-11-25T12:58:01.256Z,68.83
2018-11-25T13:00:40.772Z,71.63
2018-11-25T13:02:45.061Z,60.27
2018-11-25T13:04:49.790Z,71.53
2018-11-25T13:06:54.193Z,76.00
2018-11-25T13:08:58.606Z,77.03
2018-11-25T13:11:03.124Z,79.00
2018-11-25T13:13:08.781Z,74.47
2018-11-25T13:15:13.327Z,65.97
2018-11-25T13:17:17.735Z,69.87
2018-11-25T13:19:22.023Z,59.60
2018-11-25T13:21:27.444Z,69.47
2018-11-25T13:23:31.713Z,62.10
2018-11-25T13:25:36.294Z,62.00
2018-11-25T13:27:41.161Z,60.43
2018-11-25T13:29:45.892Z,67.87
2018-11-25T13:31:50.556Z,60.00
2018-11-25T13:33:54.978Z,61.10
2018-11-25T13:35:59.454Z,56.93
2018-11-25T13:38:03.796Z,68.53
2018-11-25T13:40:11.181Z,58.87
2018-11-25T13:42:16.871Z,63.60
2018-11-25T13:44:21.277Z,59.13
2018-11-25T13:46:25.679Z,55.63
2018-11-25T13:48:30.440Z,62.47
2018-11-25T13:50:34.840Z,53.07
2018-11-25T13:52:39.276Z,59.97
2018-11-25T13:54:43.443Z,62.30
2018-11-25T13:56:47.789Z,64.63
2018-11-25T13:58:52.251Z,60.33
2018-11-25T14:00:59.365Z,74.40
2018-11-25T14:03:04.752Z,68.30
2018-11-25T14:05:09.633Z,72.67
2018-11-25T14:07:14.150Z,69.33
2018-11-25T14:09:18.708Z,69.70
2018-11-25T14:11:23.329Z,65.43
2018-11-25T14:13:27.829Z,73.07
2018-11-25T14:15:32.053Z,70.80
2018-11-25T14:17:36.583Z,73.53
2018-11-25T14:19:40.892Z,80.13
2018-11-25T14:21:45.408Z,71.57
2018-11-25T14:23:49.717Z,85.40
2018-11-25T14:25:54.229Z,87.40
2018-11-25T14:28:09.238Z,89.13
2018-11-25T14:30:22.546Z,75.83
2018-11-25T14:32:26.849Z,78.30
2018-11-25T14:34:31.163Z,89.87
2018-11-25T14:36:35.471Z,81.67
2018-11-25T14:38:39.891Z,70.20
2018-11-25T14:40:44.363Z,80.00
2018-11-25T14:42:48.660Z,77.00
2018-11-25T14:44:52.903Z,72.40
2018-11-25T14:46:57.396Z,82.43
2018-11-25T14:49:02.064Z,82.43
2018-11-25T14:51:06.266Z,89.83
2018-11-25T14:53:10.924Z,85.83
2018-11-25T14:55:15.997Z,86.97
2018-11-25T14:57:20.383Z,93.80
2018-11-25T14:59:24.756Z,93.90
2018-11-25T15:01:29.295Z,78.40
2018-11-25T15:03:33.561Z,104.53
2018-11-25T15:05:42.205Z,93.53
2018-11-25T15:07:46.561Z,87.27
2018-11-25T15:09:51.045Z,98.63
2018-11-25T15:11:56.225Z,104.10
2018-11-25T15:14:00.605Z,97.73
2018-11-25T15:16:06.923Z,100.60
2018-11-25T15:18:11.515Z,91.60
2018-11-25T15:20:16.629Z,102.07
2018-11-25T15:22:20.618Z,95.10
2018-11-25T15:24:25.166Z,106.73
2018-11-25T15:26:29.581Z,103.80
2018-11-25T15:28:34.302Z,103.70
2018-11-25T15:30:39.098Z,98.07
2018-11-25T15:32:43.763Z,100.50
2018-11-25T15:34:48.235Z,98.60
2018-11-25T15:36:52.707Z,103.07
2018-11-25T15:38:57.087Z,99.23
2018-11-25T15:41:01.405Z,113.57
2018-11-25T15:43:06.233Z,112.57
2018-11-25T15:45:11.454Z,114.93
2018-11-25T15:47:15.886Z,109.23
2018-11-25T15:49:20.299Z,106.00
2018-11-25T15:51:24.712Z,109.13
2018-11-25T15:53:29.244Z,106.40
2018-11-25T15:55:33.665Z,108.60
2018-11-25T15:57:38.075Z,110.07
2018-11-25T15:59:42.332Z,117.27
2018-11-25T16:01:46.711Z,112.03
2018-11-25T16:03:51.039Z,100.20
2018-11-25T16:06:00.407Z,109.63
2018-11-25T16:08:04.780Z,105.13
2018-11-25T16:10:10.844Z,120.47
2018-11-25T16:12:15.369Z,128.10
2018-11-25T16:14:19.773Z,120.27
2018-11-25T16:16:23.925Z,116.87
2018-11-25T16:18:28.195Z,110.77
2018-11-25T16:20:32.779Z,116.43
2018-11-25T16:22:37.297Z,117.70
2018-11-25T16:24:41.665Z,118.33
2018-11-25T16:26:45.969Z,118.90
2018-11-25T16:28:52.247Z,113.87
2018-11-25T16:30:56.601Z,116.13
2018-11-25T16:33:00.981Z,128.87
2018-11-25T16:35:05.701Z,114.07
2018-11-25T16:37:10.198Z,130.13
2018-11-25T16:39:14.609Z,110.57
2018-11-25T16:41:18.802Z,119.67
2018-11-25T16:43:23.503Z,116.23
2018-11-25T16:45:28.271Z,107.33
2018-11-25T16:47:33.705Z,108.80
2018-11-25T16:49:38.412Z,113.07
2018-11-25T16:51:44.100Z,104.30
2018-11-25T16:53:48.289Z,112.70
2018-11-25T16:55:52.679Z,120.07
2018-11-25T16:57:56.898Z,110.53
2018-11-25T17:00:01.433Z,113.73
2018-11-25T17:02:05.984Z,118.60
2018-11-25T17:04:10.311Z,118.37
2018-11-25T17:06:14.977Z,116.33
2018-11-25T17:08:37.392Z,127.23
2018-11-25T17:10:41.872Z,126.13
2018-11-25T17:12:46.169Z,146.03
2018-11-25T17:14:50.566Z,134.60
2018-11-25T17:16:54.846Z,113.60
2018-11-25T17:18:59.176Z,129.97
2018-11-25T17:21:04.768Z,132.97
2018-11-25T17:23:09.177Z,138.17
2018-11-25T17:25:14.481Z,118.63
2018-11-25T17:27:18.952Z,124.47
2018-11-25T17:29:23.554Z,107.93
2018-11-25T17:31:27.894Z,113.10
2018-11-25T17:33:38.719Z,114.30
2018-11-25T17:35:43.738Z,102.40
2018-11-25T17:37:48.556Z,119.50
2018-11-25T17:39:53.031Z,125.73
2018-11-25T17:41:57.684Z,118.07
2018-11-25T17:44:02.148Z,123.73
2018-11-25T17:46:07.000Z,109.27
2018-11-25T17:48:11.524Z,108.90
2018-11-25T17:50:19.382Z,115.80
2018-11-25T17:52:23.719Z,118.07
2018-11-25T17:54:28.138Z,112.63
2018-11-25T17:56:32.767Z,109.27
2018-11-25T17:58:37.182Z,118.50
2018-11-25T18:00:45.181Z,104.83
2018-11-25T18:02:49.682Z,114.93
2018-11-25T18:04:54.111Z,115.93
2018-11-25T18:06:58.602Z,119.07
2018-11-25T18:09:02.997Z,111.80
2018-11-25T18:11:07.514Z,115.10
2018-11-25T18:13:11.830Z,114.50
2018-11-25T18:15:17.814Z,115.70
2018-11-25T18:17:22.130Z,114.20
2018-11-25T18:19:26.606Z,116.83
2018-11-25T18:21:31.032Z,108.63
2018-11-25T18:23:35.473Z,115.20
2018-11-25T18:25:39.817Z,105.63
2018-11-25T18:27:44.408Z,100.57
2018-11-25T18:29:48.918Z,98.07
2018-11-25T18:31:53.390Z,91.53
2018-11-25T18:33:57.978Z,105.17
2018-11-25T18:36:02.209Z,87.83
2018-11-25T18:38:06.885Z,99.53
2018-11-25T18:40:13.232Z,88.07
2018-11-25T18:42:17.719Z,94.57
2018-11-25T18:44:22.321Z,93.87
2018-11-25T18:46:26.756Z,77.57
2018-11-25T18:48:32.197Z,96.70
2018-11-25T18:50:36.465Z,86.63
2018-11-25T18:52:40.926Z,85.97
2018-11-25T18:54:47.029Z,81.83
2018-11-25T18:56:51.365Z,77.37
2018-11-25T18:58:55.874Z,79.20
2018-11-25T19:01:14.938Z,85.90
2018-11-25T19:03:19.298Z,88.33
2018-11-25T19:05:24.134Z,88.47
2018-11-25T19:07:28.410Z,79.67
2018-11-25T19:09:32.884Z,78.23
2018-11-25T19:11:37.372Z,82.80
2018-11-25T19:13:41.745Z,79.83
2018-11-25T19:15:46.290Z,90.67
2018-11-25T19:17:50.590Z,72.87
2018-11-25T19:19:54.729Z,86.90
2018-11-25T19:21:59.146Z,91.23
2018-11-25T19:24:03.391Z,81.77
2018-11-25T19:26:08.097Z,81.00
2018-11-25T19:28:12.301Z,83.07
2018-11-25T19:30:16.727Z,74.10
2018-11-25T19:32:21.118Z,76.93
2018-11-25T19:34:25.653Z,72.57
2018-11-25T19:36:29.943Z,81.03
2018-11-25T19:38:34.263Z,77.90
2018-11-25T19:40:39.149Z,80.87
2018-11-25T19:42:43.848Z,77.03
2018-11-25T19:44:48.249Z,89.73
2018-11-25T19:46:53.195Z,76.07
2018-11-25T19:48:57.574Z,83.87
2018-11-25T19:51:02.205Z,80.70
2018-11-25T19:53:08.531Z,83.53
2018-11-25T19:55:13.028Z,70.50
2018-11-25T19:57:17.621Z,66.77
2018-11-25T19:59:22.118Z,78.90
2018-11-25T20:01:26.427Z,74.33
2018-11-25T20:03:30.934Z,82.13
2018-11-25T20:05:35.240Z,84.17
2018-11-25T20:07:39.801Z,81.87
2018-11-25T20:09:44.122Z,72.67
2018-11-25T20:11:48.841Z,73.10
2018-11-25T20:13:53.251Z,80.67
2018-11-25T20:16:02.946Z,85.47
2018-11-25T20:18:08.651Z,82.67
2018-11-25T20:20:16.111Z,86.07
2018-11-25T20:22:24.946Z,88.90
2018-11-25T20:24:29.260Z,87.67
2018-11-25T20:26:33.953Z,83.73
2018-11-25T20:28:38.363Z,88.23
2018-11-25T20:30:42.754Z,84.23
2018-11-25T20:32:52.208Z,89.73
2018-11-25T20:34:56.778Z,88.93
2018-11-25T20:37:01.300Z,84.80
2018-11-25T20:39:44.883Z,82.77
2018-11-25T20:41:49.588Z,90.17
2018-11-25T20:43:53.965Z,88.83
2018-11-25T20:46:03.704Z,92.77
2018-11-25T20:48:08.305Z,94.17
2018-11-25T20:50:12.819Z,98.63
2018-11-25T20:52:22.551Z,104.50
2018-11-25T20:54:26.990Z,109.93
2018-11-25T20:56:31.896Z,88.43
2018-11-25T20:58:36.823Z,82.53
2018-11-25T21:00:42.662Z,89.67
2018-11-25T21:02:47.438Z,91.97
2018-11-25T21:04:52.115Z,111.63
2018-11-25T21:06:56.593Z,98.43
2018-11-25T21:09:01.301Z,93.33
2018-11-25T21:11:06.102Z,114.83
2018-11-25T21:13:10.767Z,93.10
2018-11-25T21:15:15.280Z,108.60
2018-11-25T21:17:20.109Z,102.80
2018-11-25T21:19:24.489Z,83.10
2018-11-25T21:21:28.927Z,94.07
2018-11-25T21:23:33.460Z,109.93
2018-11-25T21:25:37.768Z,92.77
2018-11-25T21:27:43.440Z,90.00
2018-11-25T21:29:47.955Z,100.10
2018-11-25T21:31:52.349Z,100.07
2018-11-25T21:33:57.074Z,107.30
2018-11-25T21:36:01.518Z,93.17
2018-11-25T21:38:05.805Z,101.20
2018-11-25T21:40:15.436Z,92.93
2018-11-25T21:42:19.930Z,100.73
2018-11-25T21:44:24.368Z,86.67
2018-11-25T21:46:28.652Z,100.47
2018-11-25T21:48:33.089Z,100.93
2018-11-25T21:50:37.434Z,92.97
2018-11-25T21:52:41.854Z,100.97
2018-11-25T21:54:46.234Z,98.27
2018-11-25T21:56:50.693Z,86.33
2018-11-25T21:58:55.094Z,96.20
2018-11-25T22:00:59.450Z,80.87
2018-11-25T22:03:03.815Z,84.97
2018-11-25T22:05:08.774Z,91.17
2018-11-25T22:07:13.378Z,100.37
2018-11-25T22:09:17.965Z,89.50
2018-11-25T22:11:22.307Z,88.97
2018-11-25T22:13:26.593Z,96.20
2018-11-25T22:15:31.041Z,96.43
2018-11-25T22:17:35.377Z,91.90
2018-11-25T22:19:39.756Z,95.50
2018-11-25T22:21:44.050Z,95.47
2018-11-25T22:23:48.611Z,93.23
2018-11-25T22:25:53.141Z,88.97
2018-11-25T22:27:57.742Z,99.20
2018-11-25T22:30:02.190Z,104.30
2018-11-25T22:32:06.484Z,91.87
2018-11-25T22:34:10.689Z,100.63
2018-11-25T22:36:15.029Z,101.23
2018-11-25T22:38:19.365Z,101.67
2018-11-25T22:40:23.954Z,102.10
2018-11-25T22:42:28.356Z,91.30
2018-11-25T22:44:32.636Z,101.43
2018-11-25T22:46:37.008Z,99.23
2018-11-25T22:48:41.201Z,113.07
2018-11-25T22:50:45.499Z,95.73
2018-11-25T22:52:50.342Z,121.70
2018-11-25T22:54:54.645Z,94.27
2018-11-25T22:56:59.069Z,96.13
2018-11-25T22:59:03.494Z,107.23
2018-11-25T23:01:08.023Z,110.00
2018-11-25T23:03:12.727Z,117.20
2018-11-25T23:05:28.172Z,106.17
2018-11-25T23:07:32.587Z,111.43
2018-11-25T23:09:37.041Z,107.70
2018-11-25T23:11:41.371Z,115.90
2018-11-25T23:13:45.633Z,116.77
2018-11-25T23:15:49.994Z,105.90
2018-11-25T23:17:54.494Z,119.77
2018-11-25T23:19:59.045Z,105.70
2018-11-25T23:22:03.355Z,105.27
2018-11-25T23:24:07.877Z,128.87
2018-11-25T23:26:12.085Z,115.70
2018-11-25T23:28:16.491Z,101.27
2018-11-25T23:30:20.922Z,103.30
2018-11-25T23:32:25.463Z,107.87
2018-11-25T23:34:29.956Z,98.83
2018-11-25T23:36:34.285Z,113.13
2018-11-25T23:38:38.412Z,106.07
2018-11-25T23:40:42.759Z,104.37
2018-11-25T23:42:47.370Z,97.73
2018-11-25T23:44:51.811Z,99.23
2018-11-25T23:46:56.335Z,103.97
2018-11-25T23:49:00.787Z,106.67
2018-11-25T23:51:05.655Z,105.10
2018-11-25T23:53:10.043Z,101.33
2018-11-25T23:55:15.260Z,119.80
2018-11-25T23:57:19.537Z,111.10
2018-11-25T23:59:24.007Z,116.60
